To NAV CANADA Home Page Login to a new session Search on AWWS site Feedback and Comments Disclaimer Vers la page française équivalente Tips FAQ What's new on the site To the Forecasts and Observations / NOTAM section To "File a Flight Plan" website Publications and other links Update of the User's profile FIC Telephone Numbers My Weather Data Folder Route Weather Data Regional Weather Data Local Weather Data To the Forecasts and Observations / NOTAM section
Request Generated 04/30/2016 at 20:42:11 UTC . Weather information available at that time is displayed.

METAR/TAF

RANKIN INLET/NU    

METAR CYRT 302000Z 16011KT 15SM SCT055 M01/M04 A3047 RMK SC3 SLP321=
METAR CYRT 301900Z 18009KT 15SM SCT060 M00/M07 A3048 RMK SC3 SLP325=
METAR CYRT 301800Z 18007KT 15SM BKN055 M01/M08 A3048 RMK SC6 SLP325=

TAF CYRT 301738Z 3018/0106 18010KT P6SM BKN050 TEMPO 3018/3020 SCT050
FM302000 18010KT P6SM FEW050
RMK NXT FCST BY 010000Z=
Your time UTC time
Weather data provided by Environment Canada and NAV CANADA